sensor_id;sensor_type;location;lat;lon;timestamp;P1;durP1;ratioP1;P2;durP2;ratioP2
10335;SDS011;5213;53.548;9.930;2023-05-18T00:01:06;4.53;;;2.97;;
10335;SDS011;5213;53.548;9.930;2023-05-18T00:03:32;5.80;;;2.70;;
10335;SDS011;5213;53.548;9.930;2023-05-18T00:06:00;6.30;;;2.92;;
10335;SDS011;5213;53.548;9.930;2023-05-18T00:08:31;8.52;;;2.70;;
10335;SDS011;5213;53.548;9.930;2023-05-18T00:10:57;8.25;;;3.05;;
10335;SDS011;5213;53.548;9.930;2023-05-18T00:13:23;7.22;;;2.97;;
10335;SDS011;5213;53.548;9.930;2023-05-18T00:15:49;5.43;;;2.38;;
10335;SDS011;5213;53.548;9.930;2023-05-18T00:18:15;5.55;;;2.60;;
10335;SDS011;5213;53.548;9.930;2023-05-18T00:20:41;6.60;;;2.35;;
10335;SDS011;5213;53.548;9.930;2023-05-18T00:23:07;6.15;;;2.85;;
10335;SDS011;5213;53.548;9.930;2023-05-18T00:25:40;7.28;;;2.75;;
10335;SDS011;5213;53.548;9.930;2023-05-18T00:28:06;7.55;;;2.75;;
10335;SDS011;5213;53.548;9.930;2023-05-18T00:30:32;7.68;;;2.60;;
10335;SDS011;5213;53.548;9.930;2023-05-18T00:32:58;7.10;;;2.60;;
10335;SDS011;5213;53.548;9.930;2023-05-18T00:35:24;7.13;;;2.60;;
10335;SDS011;5213;53.548;9.930;2023-05-18T00:37:50;6.00;;;2.40;;
10335;SDS011;5213;53.548;9.930;2023-05-18T00:40:16;5.97;;;2.70;;
10335;SDS011;5213;53.548;9.930;2023-05-18T00:42:42;4.43;;;2.30;;
10335;SDS011;5213;53.548;9.930;2023-05-18T00:45:08;6.80;;;2.70;;
10335;SDS011;5213;53.548;9.930;2023-05-18T00:47:35;5.53;;;2.85;;
10335;SDS011;5213;53.548;9.930;2023-05-18T00:50:01;7.05;;;2.42;;
10335;SDS011;5213;53.548;9.930;2023-05-18T00:52:27;7.15;;;2.50;;
10335;SDS011;5213;53.548;9.930;2023-05-18T00:54:53;9.40;;;2.72;;
10335;SDS011;5213;53.548;9.930;2023-05-18T00:57:22;5.50;;;2.63;;
10335;SDS011;5213;53.548;9.930;2023-05-18T00:59:48;7.53;;;3.22;;
10335;SDS011;5213;53.548;9.930;2023-05-18T01:02:15;7.35;;;3.35;;
10335;SDS011;5213;53.548;9.930;2023-05-18T01:04:41;6.95;;;3.45;;
10335;SDS011;5213;53.548;9.930;2023-05-18T01:07:07;5.20;;;2.75;;
10335;SDS011;5213;53.548;9.930;2023-05-18T01:09:35;6.63;;;2.90;;
10335;SDS011;5213;53.548;9.930;2023-05-18T01:25:09;6.15;;;3.25;;
10335;SDS011;5213;53.548;9.930;2023-05-18T01:27:38;6.18;;;3.00;;
10335;SDS011;5213;53.548;9.930;2023-05-18T01:30:06;7.70;;;3.00;;
10335;SDS011;5213;53.548;9.930;2023-05-18T01:32:39;6.10;;;3.25;;
10335;SDS011;5213;53.548;9.930;2023-05-18T01:35:06;7.40;;;3.35;;
10335;SDS011;5213;53.548;9.930;2023-05-18T01:37:32;5.55;;;2.90;;
10335;SDS011;5213;53.548;9.930;2023-05-18T01:39:58;10.93;;;3.60;;
10335;SDS011;5213;53.548;9.930;2023-05-18T01:42:25;5.95;;;2.72;;
10335;SDS011;5213;53.548;9.930;2023-05-18T01:44:53;4.82;;;2.72;;
10335;SDS011;5213;53.548;9.930;2023-05-18T01:47:20;7.93;;;3.00;;
10335;SDS011;5213;53.548;9.930;2023-05-18T01:54:56;8.73;;;3.38;;
10335;SDS011;5213;53.548;9.930;2023-05-18T01:57:24;6.55;;;3.08;;
10335;SDS011;5213;53.548;9.930;2023-05-18T01:59:52;7.18;;;3.17;;
10335;SDS011;5213;53.548;9.930;2023-05-18T02:02:18;4.43;;;2.53;;
10335;SDS011;5213;53.548;9.930;2023-05-18T02:04:44;4.82;;;2.58;;
10335;SDS011;5213;53.548;9.930;2023-05-18T02:07:10;7.47;;;3.00;;
10335;SDS011;5213;53.548;9.930;2023-05-18T02:09:36;5.68;;;2.63;;
10335;SDS011;5213;53.548;9.930;2023-05-18T02:12:02;7.93;;;2.92;;
10335;SDS011;5213;53.548;9.930;2023-05-18T02:14:29;4.72;;;2.35;;
10335;SDS011;5213;53.548;9.930;2023-05-18T02:16:55;9.52;;;2.72;;
10335;SDS011;5213;53.548;9.930;2023-05-18T02:19:21;6.30;;;2.30;;
10335;SDS011;5213;53.548;9.930;2023-05-18T02:21:49;7.07;;;2.25;;
10335;SDS011;5213;53.548;9.930;2023-05-18T02:24:15;4.82;;;2.20;;
10335;SDS011;5213;53.548;9.930;2023-05-18T02:26:42;6.20;;;2.05;;
10335;SDS011;5213;53.548;9.930;2023-05-18T02:29:08;7.40;;;2.22;;
10335;SDS011;5213;53.548;9.930;2023-05-18T02:31:36;6.10;;;1.90;;
10335;SDS011;5213;53.548;9.930;2023-05-18T02:34:02;5.78;;;2.28;;
10335;SDS011;5213;53.548;9.930;2023-05-18T02:36:28;4.30;;;1.98;;
10335;SDS011;5213;53.548;9.930;2023-05-18T02:39:04;6.05;;;1.88;;
10335;SDS011;5213;53.548;9.930;2023-05-18T02:41:36;6.03;;;2.20;;
10335;SDS011;5213;53.548;9.930;2023-05-18T02:44:03;8.00;;;2.33;;
10335;SDS011;5213;53.548;9.930;2023-05-18T02:46:30;9.00;;;2.28;;
10335;SDS011;5213;53.548;9.930;2023-05-18T02:48:56;5.80;;;2.45;;
10335;SDS011;5213;53.548;9.930;2023-05-18T02:51:22;7.05;;;2.00;;
10335;SDS011;5213;53.548;9.930;2023-05-18T02:53:49;9.45;;;2.40;;
10335;SDS011;5213;53.548;9.930;2023-05-18T02:56:15;3.35;;;1.80;;
10335;SDS011;5213;53.548;9.930;2023-05-18T02:58:41;8.57;;;1.95;;
10335;SDS011;5213;53.548;9.930;2023-05-18T03:01:08;7.88;;;2.10;;
10335;SDS011;5213;53.548;9.930;2023-05-18T03:03:36;4.00;;;2.17;;
10335;SDS011;5213;53.548;9.930;2023-05-18T03:06:02;5.22;;;2.30;;
10335;SDS011;5213;53.548;9.930;2023-05-18T03:08:29;8.35;;;2.10;;
10335;SDS011;5213;53.548;9.930;2023-05-18T03:10:56;7.78;;;2.35;;
10335;SDS011;5213;53.548;9.930;2023-05-18T03:13:22;6.45;;;2.03;;
10335;SDS011;5213;53.548;9.930;2023-05-18T03:15:48;8.05;;;2.00;;
10335;SDS011;5213;53.548;9.930;2023-05-18T03:18:15;6.75;;;2.22;;
10335;SDS011;5213;53.548;9.930;2023-05-18T03:20:43;7.97;;;2.22;;
10335;SDS011;5213;53.548;9.930;2023-05-18T03:23:09;4.18;;;2.20;;
10335;SDS011;5213;53.548;9.930;2023-05-18T03:25:35;6.88;;;2.05;;
10335;SDS011;5213;53.548;9.930;2023-05-18T03:28:02;8.13;;;2.40;;
10335;SDS011;5213;53.548;9.930;2023-05-18T03:30:29;6.25;;;2.25;;
10335;SDS011;5213;53.548;9.930;2023-05-18T03:32:56;7.63;;;2.30;;
10335;SDS011;5213;53.548;9.930;2023-05-18T03:35:23;9.20;;;2.65;;
10335;SDS011;5213;53.548;9.930;2023-05-18T03:37:49;5.50;;;2.22;;
10335;SDS011;5213;53.548;9.930;2023-05-18T03:40:15;5.60;;;2.20;;
10335;SDS011;5213;53.548;9.930;2023-05-18T03:42:41;4.53;;;2.17;;
10335;SDS011;5213;53.548;9.930;2023-05-18T03:45:08;8.05;;;2.40;;
10335;SDS011;5213;53.548;9.930;2023-05-18T03:47:34;4.22;;;2.20;;
10335;SDS011;5213;53.548;9.930;2023-05-18T03:50:00;7.85;;;2.55;;
10335;SDS011;5213;53.548;9.930;2023-05-18T03:52:26;5.32;;;2.55;;
10335;SDS011;5213;53.548;9.930;2023-05-18T03:54:54;9.77;;;2.10;;
10335;SDS011;5213;53.548;9.930;2023-05-18T03:57:20;4.35;;;2.00;;
10335;SDS011;5213;53.548;9.930;2023-05-18T03:59:46;5.65;;;2.00;;
10335;SDS011;5213;53.548;9.930;2023-05-18T04:02:12;8.30;;;2.40;;
10335;SDS011;5213;53.548;9.930;2023-05-18T04:04:40;4.60;;;2.10;;
10335;SDS011;5213;53.548;9.930;2023-05-18T04:07:10;3.53;;;1.83;;
10335;SDS011;5213;53.548;9.930;2023-05-18T04:09:37;9.07;;;1.95;;
10335;SDS011;5213;53.548;9.930;2023-05-18T04:12:04;5.45;;;1.83;;
10335;SDS011;5213;53.548;9.930;2023-05-18T04:14:30;5.85;;;2.15;;
10335;SDS011;5213;53.548;9.930;2023-05-18T04:16:59;6.15;;;2.38;;
10335;SDS011;5213;53.548;9.930;2023-05-18T04:19:32;5.97;;;1.90;;
10335;SDS011;5213;53.548;9.930;2023-05-18T04:21:58;8.20;;;2.28;;
10335;SDS011;5213;53.548;9.930;2023-05-18T04:24:24;5.85;;;2.13;;
10335;SDS011;5213;53.548;9.930;2023-05-18T04:26:51;5.88;;;2.00;;
10335;SDS011;5213;53.548;9.930;2023-05-18T04:29:17;8.40;;;2.35;;
10335;SDS011;5213;53.548;9.930;2023-05-18T04:31:43;7.68;;;2.33;;
10335;SDS011;5213;53.548;9.930;2023-05-18T04:34:13;7.22;;;1.92;;
10335;SDS011;5213;53.548;9.930;2023-05-18T04:36:41;5.07;;;2.10;;
10335;SDS011;5213;53.548;9.930;2023-05-18T04:39:08;7.07;;;2.30;;
10335;SDS011;5213;53.548;9.930;2023-05-18T04:41:35;4.25;;;2.05;;
10335;SDS011;5213;53.548;9.930;2023-05-18T04:44:01;6.18;;;1.98;;
10335;SDS011;5213;53.548;9.930;2023-05-18T04:46:28;5.28;;;2.28;;
10335;SDS011;5213;53.548;9.930;2023-05-18T04:48:54;5.43;;;1.60;;
10335;SDS011;5213;53.548;9.930;2023-05-18T04:51:22;9.18;;;2.10;;
10335;SDS011;5213;53.548;9.930;2023-05-18T04:53:49;5.38;;;2.08;;
10335;SDS011;5213;53.548;9.930;2023-05-18T04:56:18;6.20;;;2.17;;
10335;SDS011;5213;53.548;9.930;2023-05-18T04:58:45;6.88;;;2.10;;
10335;SDS011;5213;53.548;9.930;2023-05-18T05:01:14;4.68;;;2.10;;
10335;SDS011;5213;53.548;9.930;2023-05-18T05:03:40;5.20;;;2.03;;
10335;SDS011;5213;53.548;9.930;2023-05-18T05:06:07;5.88;;;1.90;;
10335;SDS011;5213;53.548;9.930;2023-05-18T05:08:33;4.93;;;1.98;;
10335;SDS011;5213;53.548;9.930;2023-05-18T05:11:00;6.93;;;2.45;;
10335;SDS011;5213;53.548;9.930;2023-05-18T05:13:26;7.63;;;2.08;;
10335;SDS011;5213;53.548;9.930;2023-05-18T05:15:52;6.45;;;1.98;;
10335;SDS011;5213;53.548;9.930;2023-05-18T05:18:18;4.72;;;2.20;;
10335;SDS011;5213;53.548;9.930;2023-05-18T05:20:44;6.88;;;2.30;;
10335;SDS011;5213;53.548;9.930;2023-05-18T05:23:10;8.48;;;2.15;;
10335;SDS011;5213;53.548;9.930;2023-05-18T05:25:36;5.50;;;2.10;;
10335;SDS011;5213;53.548;9.930;2023-05-18T05:28:02;6.18;;;2.42;;
10335;SDS011;5213;53.548;9.930;2023-05-18T05:30:29;6.15;;;2.03;;
10335;SDS011;5213;53.548;9.930;2023-05-18T05:32:55;3.38;;;1.90;;
10335;SDS011;5213;53.548;9.930;2023-05-18T05:35:21;4.90;;;2.10;;
10335;SDS011;5213;53.548;9.930;2023-05-18T05:37:47;6.75;;;2.15;;
10335;SDS011;5213;53.548;9.930;2023-05-18T05:40:13;5.75;;;2.13;;
10335;SDS011;5213;53.548;9.930;2023-05-18T05:42:39;7.63;;;2.45;;
10335;SDS011;5213;53.548;9.930;2023-05-18T05:45:06;4.05;;;1.90;;
10335;SDS011;5213;53.548;9.930;2023-05-18T05:47:33;4.50;;;1.80;;
10335;SDS011;5213;53.548;9.930;2023-05-18T05:49:59;5.60;;;1.95;;
10335;SDS011;5213;53.548;9.930;2023-05-18T05:52:25;5.10;;;2.10;;
10335;SDS011;5213;53.548;9.930;2023-05-18T05:54:54;5.43;;;2.53;;
10335;SDS011;5213;53.548;9.930;2023-05-18T05:57:20;8.73;;;2.30;;
10335;SDS011;5213;53.548;9.930;2023-05-18T05:59:46;3.13;;;1.98;;
10335;SDS011;5213;53.548;9.930;2023-05-18T06:02:12;5.22;;;2.47;;
10335;SDS011;5213;53.548;9.930;2023-05-18T06:04:38;6.22;;;2.03;;
10335;SDS011;5213;53.548;9.930;2023-05-18T06:07:04;4.43;;;2.13;;
10335;SDS011;5213;53.548;9.930;2023-05-18T06:09:31;8.23;;;2.15;;
10335;SDS011;5213;53.548;9.930;2023-05-18T06:11:57;3.33;;;1.88;;
10335;SDS011;5213;53.548;9.930;2023-05-18T06:14:23;6.88;;;2.15;;
10335;SDS011;5213;53.548;9.930;2023-05-18T06:16:49;10.48;;;2.40;;
10335;SDS011;5213;53.548;9.930;2023-05-18T06:19:15;5.65;;;2.30;;
10335;SDS011;5213;53.548;9.930;2023-05-18T06:21:41;4.68;;;2.15;;
10335;SDS011;5213;53.548;9.930;2023-05-18T06:24:07;6.15;;;2.47;;
10335;SDS011;5213;53.548;9.930;2023-05-18T06:26:34;5.28;;;2.15;;
10335;SDS011;5213;53.548;9.930;2023-05-18T06:29:00;5.28;;;1.85;;
10335;SDS011;5213;53.548;9.930;2023-05-18T06:31:26;5.22;;;2.03;;
10335;SDS011;5213;53.548;9.930;2023-05-18T06:33:52;4.32;;;1.90;;
10335;SDS011;5213;53.548;9.930;2023-05-18T06:36:18;6.15;;;2.40;;
10335;SDS011;5213;53.548;9.930;2023-05-18T06:38:45;7.57;;;2.28;;
10335;SDS011;5213;53.548;9.930;2023-05-18T06:41:11;5.53;;;2.30;;
10335;SDS011;5213;53.548;9.930;2023-05-18T06:43:37;6.45;;;2.03;;
10335;SDS011;5213;53.548;9.930;2023-05-18T06:46:03;6.03;;;2.22;;
10335;SDS011;5213;53.548;9.930;2023-05-18T06:48:29;5.97;;;2.05;;
10335;SDS011;5213;53.548;9.930;2023-05-18T06:50:55;6.45;;;2.15;;
10335;SDS011;5213;53.548;9.930;2023-05-18T06:53:21;4.97;;;2.10;;
10335;SDS011;5213;53.548;9.930;2023-05-18T06:55:47;12.15;;;2.25;;
10335;SDS011;5213;53.548;9.930;2023-05-18T06:58:13;8.63;;;2.10;;
10335;SDS011;5213;53.548;9.930;2023-05-18T07:00:39;6.35;;;2.10;;
10335;SDS011;5213;53.548;9.930;2023-05-18T07:03:05;9.32;;;2.50;;
10335;SDS011;5213;53.548;9.930;2023-05-18T07:05:32;4.93;;;1.90;;
10335;SDS011;5213;53.548;9.930;2023-05-18T07:07:58;5.80;;;2.20;;
10335;SDS011;5213;53.548;9.930;2023-05-18T07:10:24;5.63;;;2.25;;
10335;SDS011;5213;53.548;9.930;2023-05-18T07:12:52;7.15;;;2.00;;
10335;SDS011;5213;53.548;9.930;2023-05-18T07:15:18;5.85;;;2.05;;
10335;SDS011;5213;53.548;9.930;2023-05-18T07:17:44;4.90;;;2.10;;
10335;SDS011;5213;53.548;9.930;2023-05-18T07:20:11;7.43;;;2.30;;
10335;SDS011;5213;53.548;9.930;2023-05-18T07:22:37;8.75;;;2.10;;
10335;SDS011;5213;53.548;9.930;2023-05-18T07:25:03;6.88;;;2.33;;
10335;SDS011;5213;53.548;9.930;2023-05-18T07:27:29;4.70;;;2.00;;
10335;SDS011;5213;53.548;9.930;2023-05-18T07:29:57;6.53;;;2.05;;
10335;SDS011;5213;53.548;9.930;2023-05-18T07:32:23;5.47;;;2.40;;
10335;SDS011;5213;53.548;9.930;2023-05-18T07:34:49;7.75;;;2.30;;
10335;SDS011;5213;53.548;9.930;2023-05-18T07:37:15;7.35;;;2.13;;
10335;SDS011;5213;53.548;9.930;2023-05-18T07:39:41;5.43;;;2.05;;
10335;SDS011;5213;53.548;9.930;2023-05-18T07:42:07;7.50;;;2.05;;
10335;SDS011;5213;53.548;9.930;2023-05-18T07:44:33;7.32;;;2.20;;
10335;SDS011;5213;53.548;9.930;2023-05-18T07:46:59;7.57;;;2.35;;
10335;SDS011;5213;53.548;9.930;2023-05-18T07:49:25;7.03;;;2.00;;
10335;SDS011;5213;53.548;9.930;2023-05-18T07:51:51;6.38;;;2.30;;
10335;SDS011;5213;53.548;9.930;2023-05-18T07:54:18;5.88;;;2.28;;
10335;SDS011;5213;53.548;9.930;2023-05-18T07:56:44;6.47;;;2.20;;
10335;SDS011;5213;53.548;9.930;2023-05-18T07:59:10;6.82;;;2.30;;
10335;SDS011;5213;53.548;9.930;2023-05-18T08:01:36;7.15;;;2.42;;
10335;SDS011;5213;53.548;9.930;2023-05-18T08:04:03;6.10;;;2.33;;
10335;SDS011;5213;53.548;9.930;2023-05-18T08:06:29;4.47;;;1.80;;
10335;SDS011;5213;53.548;9.930;2023-05-18T08:08:56;6.20;;;1.90;;
10335;SDS011;5213;53.548;9.930;2023-05-18T08:11:22;7.53;;;2.40;;
10335;SDS011;5213;53.548;9.930;2023-05-18T08:13:48;4.97;;;2.00;;
10335;SDS011;5213;53.548;9.930;2023-05-18T08:16:14;5.95;;;2.17;;
10335;SDS011;5213;53.548;9.930;2023-05-18T08:18:40;4.55;;;2.33;;
10335;SDS011;5213;53.548;9.930;2023-05-18T08:21:07;5.22;;;2.15;;
10335;SDS011;5213;53.548;9.930;2023-05-18T08:23:34;7.32;;;2.20;;
10335;SDS011;5213;53.548;9.930;2023-05-18T08:26:00;5.80;;;2.55;;
10335;SDS011;5213;53.548;9.930;2023-05-18T08:28:29;6.03;;;2.40;;
10335;SDS011;5213;53.548;9.930;2023-05-18T08:30:56;8.05;;;2.33;;
10335;SDS011;5213;53.548;9.930;2023-05-18T08:33:22;5.82;;;2.42;;
10335;SDS011;5213;53.548;9.930;2023-05-18T08:35:48;4.30;;;2.08;;
10335;SDS011;5213;53.548;9.930;2023-05-18T08:38:14;5.88;;;2.50;;
10335;SDS011;5213;53.548;9.930;2023-05-18T08:41:25;5.93;;;2.20;;
10335;SDS011;5213;53.548;9.930;2023-05-18T08:43:31;4.63;;;2.28;;
10335;SDS011;5213;53.548;9.930;2023-05-18T08:46:00;7.65;;;2.40;;
10335;SDS011;5213;53.548;9.930;2023-05-18T08:48:27;4.68;;;2.00;;
10335;SDS011;5213;53.548;9.930;2023-05-18T08:50:54;5.80;;;2.53;;
10335;SDS011;5213;53.548;9.930;2023-05-18T08:53:23;4.35;;;2.13;;
10335;SDS011;5213;53.548;9.930;2023-05-18T08:55:50;5.93;;;2.20;;
10335;SDS011;5213;53.548;9.930;2023-05-18T08:58:18;3.42;;;2.28;;
10335;SDS011;5213;53.548;9.930;2023-05-18T09:00:44;7.30;;;2.05;;
10335;SDS011;5213;53.548;9.930;2023-05-18T09:03:11;5.00;;;2.30;;
10335;SDS011;5213;53.548;9.930;2023-05-18T09:05:39;5.95;;;2.17;;
10335;SDS011;5213;53.548;9.930;2023-05-18T09:08:06;5.45;;;2.35;;
10335;SDS011;5213;53.548;9.930;2023-05-18T09:10:32;6.00;;;2.05;;
10335;SDS011;5213;53.548;9.930;2023-05-18T09:12:58;5.88;;;2.35;;
10335;SDS011;5213;53.548;9.930;2023-05-18T09:15:25;6.20;;;2.30;;
10335;SDS011;5213;53.548;9.930;2023-05-18T09:17:51;3.97;;;2.40;;
10335;SDS011;5213;53.548;9.930;2023-05-18T09:20:18;6.32;;;2.08;;
10335;SDS011;5213;53.548;9.930;2023-05-18T09:22:45;5.55;;;2.38;;
10335;SDS011;5213;53.548;9.930;2023-05-18T09:25:13;5.05;;;2.20;;
10335;SDS011;5213;53.548;9.930;2023-05-18T09:27:41;3.75;;;2.10;;
10335;SDS011;5213;53.548;9.930;2023-05-18T09:30:08;5.00;;;2.38;;
10335;SDS011;5213;53.548;9.930;2023-05-18T09:32:35;4.68;;;2.40;;
10335;SDS011;5213;53.548;9.930;2023-05-18T09:35:05;4.75;;;2.20;;
10335;SDS011;5213;53.548;9.930;2023-05-18T09:37:31;5.50;;;2.50;;
10335;SDS011;5213;53.548;9.930;2023-05-18T09:40:01;6.28;;;2.47;;
10335;SDS011;5213;53.548;9.930;2023-05-18T09:45:13;6.30;;;2.30;;
10335;SDS011;5213;53.548;9.930;2023-05-18T09:47:40;6.05;;;2.30;;
10335;SDS011;5213;53.548;9.930;2023-05-18T09:50:06;6.28;;;2.20;;
10335;SDS011;5213;53.548;9.930;2023-05-18T09:52:39;4.20;;;2.28;;
10335;SDS011;5213;53.548;9.930;2023-05-18T09:55:05;9.23;;;2.40;;
10335;SDS011;5213;53.548;9.930;2023-05-18T09:57:31;4.43;;;2.40;;
10335;SDS011;5213;53.548;9.930;2023-05-18T10:00:03;6.03;;;2.92;;
10335;SDS011;5213;53.548;9.930;2023-05-18T10:02:36;5.28;;;2.50;;
10335;SDS011;5213;53.548;9.930;2023-05-18T10:05:02;5.22;;;2.22;;
10335;SDS011;5213;53.548;9.930;2023-05-18T10:07:28;4.57;;;2.40;;
10335;SDS011;5213;53.548;9.930;2023-05-18T10:10:02;6.22;;;2.40;;
10335;SDS011;5213;53.548;9.930;2023-05-18T10:12:28;6.65;;;2.50;;
10335;SDS011;5213;53.548;9.930;2023-05-18T10:14:54;5.30;;;2.45;;
10335;SDS011;5213;53.548;9.930;2023-05-18T10:17:20;5.60;;;2.63;;
10335;SDS011;5213;53.548;9.930;2023-05-18T10:19:49;5.18;;;2.50;;
10335;SDS011;5213;53.548;9.930;2023-05-18T10:22:18;5.68;;;2.60;;
10335;SDS011;5213;53.548;9.930;2023-05-18T10:24:49;3.67;;;2.20;;
10335;SDS011;5213;53.548;9.930;2023-05-18T10:27:15;6.60;;;2.92;;
10335;SDS011;5213;53.548;9.930;2023-05-18T10:29:42;6.18;;;2.40;;
10335;SDS011;5213;53.548;9.930;2023-05-18T10:32:10;4.00;;;2.30;;
10335;SDS011;5213;53.548;9.930;2023-05-18T10:34:37;4.25;;;2.53;;
10335;SDS011;5213;53.548;9.930;2023-05-18T10:37:03;7.32;;;2.75;;
10335;SDS011;5213;53.548;9.930;2023-05-18T10:39:34;4.85;;;2.72;;
10335;SDS011;5213;53.548;9.930;2023-05-18T10:42:01;5.78;;;2.70;;
10335;SDS011;5213;53.548;9.930;2023-05-18T10:44:27;10.57;;;2.85;;
10335;SDS011;5213;53.548;9.930;2023-05-18T10:46:54;4.72;;;2.60;;
10335;SDS011;5213;53.548;9.930;2023-05-18T10:49:23;5.47;;;2.53;;
10335;SDS011;5213;53.548;9.930;2023-05-18T10:51:53;4.53;;;2.60;;
10335;SDS011;5213;53.548;9.930;2023-05-18T10:54:20;5.65;;;2.55;;
10335;SDS011;5213;53.548;9.930;2023-05-18T10:56:52;5.72;;;2.67;;
10335;SDS011;5213;53.548;9.930;2023-05-18T10:59:19;4.82;;;2.58;;
10335;SDS011;5213;53.548;9.930;2023-05-18T11:01:48;6.60;;;2.80;;
10335;SDS011;5213;53.548;9.930;2023-05-18T11:04:15;8.10;;;2.75;;
10335;SDS011;5213;53.548;9.930;2023-05-18T11:06:41;7.85;;;3.05;;
10335;SDS011;5213;53.548;9.930;2023-05-18T11:09:07;7.07;;;2.92;;
10335;SDS011;5213;53.548;9.930;2023-05-18T11:11:49;5.95;;;2.70;;
10335;SDS011;5213;53.548;9.930;2023-05-18T11:14:23;5.50;;;2.88;;
10335;SDS011;5213;53.548;9.930;2023-05-18T11:16:49;5.75;;;2.92;;
10335;SDS011;5213;53.548;9.930;2023-05-18T11:19:16;4.18;;;3.00;;
10335;SDS011;5213;53.548;9.930;2023-05-18T11:24:14;5.47;;;2.67;;
10335;SDS011;5213;53.548;9.930;2023-05-18T11:26:42;5.18;;;3.10;;
10335;SDS011;5213;53.548;9.930;2023-05-18T11:29:16;3.08;;;2.30;;
10335;SDS011;5213;53.548;9.930;2023-05-18T11:31:43;8.00;;;3.30;;
10335;SDS011;5213;53.548;9.930;2023-05-18T11:36:54;6.32;;;3.10;;
10335;SDS011;5213;53.548;9.930;2023-05-18T11:39:23;7.25;;;2.95;;
10335;SDS011;5213;53.548;9.930;2023-05-18T11:41:59;5.50;;;2.67;;
10335;SDS011;5213;53.548;9.930;2023-05-18T11:44:28;3.88;;;2.83;;
10335;SDS011;5213;53.548;9.930;2023-05-18T11:47:07;5.90;;;3.00;;
10335;SDS011;5213;53.548;9.930;2023-05-18T11:57:04;6.25;;;2.97;;
10335;SDS011;5213;53.548;9.930;2023-05-18T12:01:57;4.45;;;2.25;;
10335;SDS011;5213;53.548;9.930;2023-05-18T12:04:24;7.05;;;3.13;;
10335;SDS011;5213;53.548;9.930;2023-05-18T12:06:50;5.57;;;2.92;;
10335;SDS011;5213;53.548;9.930;2023-05-18T12:09:17;6.15;;;2.67;;
10335;SDS011;5213;53.548;9.930;2023-05-18T12:11:43;8.63;;;3.00;;
10335;SDS011;5213;53.548;9.930;2023-05-18T12:14:10;6.90;;;2.80;;
10335;SDS011;5213;53.548;9.930;2023-05-18T12:16:36;5.55;;;2.80;;
10335;SDS011;5213;53.548;9.930;2023-05-18T12:19:05;4.70;;;2.72;;
10335;SDS011;5213;53.548;9.930;2023-05-18T12:21:35;3.78;;;2.55;;
10335;SDS011;5213;53.548;9.930;2023-05-18T12:24:02;5.22;;;3.10;;
10335;SDS011;5213;53.548;9.930;2023-05-18T12:26:28;3.67;;;2.78;;
10335;SDS011;5213;53.548;9.930;2023-05-18T12:28:55;9.57;;;3.30;;
10335;SDS011;5213;53.548;9.930;2023-05-18T12:31:22;6.75;;;2.90;;
10335;SDS011;5213;53.548;9.930;2023-05-18T12:33:48;6.18;;;3.10;;
10335;SDS011;5213;53.548;9.930;2023-05-18T12:36:15;5.93;;;2.63;;
10335;SDS011;5213;53.548;9.930;2023-05-18T12:38:41;5.35;;;2.80;;
10335;SDS011;5213;53.548;9.930;2023-05-18T12:41:07;5.18;;;2.97;;
10335;SDS011;5213;53.548;9.930;2023-05-18T12:43:34;5.45;;;2.90;;
10335;SDS011;5213;53.548;9.930;2023-05-18T12:46:03;7.50;;;2.78;;
10335;SDS011;5213;53.548;9.930;2023-05-18T12:48:44;6.45;;;2.80;;
10335;SDS011;5213;53.548;9.930;2023-05-18T12:51:17;5.35;;;2.63;;
10335;SDS011;5213;53.548;9.930;2023-05-18T12:53:44;6.18;;;2.90;;
10335;SDS011;5213;53.548;9.930;2023-05-18T12:56:10;5.90;;;2.47;;
10335;SDS011;5213;53.548;9.930;2023-05-18T12:58:36;5.65;;;2.80;;
10335;SDS011;5213;53.548;9.930;2023-05-18T13:01:07;4.72;;;2.60;;
10335;SDS011;5213;53.548;9.930;2023-05-18T13:03:37;4.13;;;2.35;;
10335;SDS011;5213;53.548;9.930;2023-05-18T13:06:04;6.80;;;3.13;;
10335;SDS011;5213;53.548;9.930;2023-05-18T13:08:32;5.65;;;3.17;;
10335;SDS011;5213;53.548;9.930;2023-05-18T13:11:04;5.25;;;3.30;;
10335;SDS011;5213;53.548;9.930;2023-05-18T13:13:31;8.32;;;3.10;;
10335;SDS011;5213;53.548;9.930;2023-05-18T13:15:57;5.65;;;2.78;;
10335;SDS011;5213;53.548;9.930;2023-05-18T13:18:24;5.60;;;2.83;;
10335;SDS011;5213;53.548;9.930;2023-05-18T13:20:51;5.30;;;2.83;;
10335;SDS011;5213;53.548;9.930;2023-05-18T13:23:21;4.10;;;2.88;;
10335;SDS011;5213;53.548;9.930;2023-05-18T13:25:48;9.30;;;3.35;;
10335;SDS011;5213;53.548;9.930;2023-05-18T13:28:15;4.65;;;2.50;;
10335;SDS011;5213;53.548;9.930;2023-05-18T13:30:42;5.35;;;3.33;;
10335;SDS011;5213;53.548;9.930;2023-05-18T13:33:08;5.47;;;2.78;;
10335;SDS011;5213;53.548;9.930;2023-05-18T13:35:35;4.95;;;2.92;;
10335;SDS011;5213;53.548;9.930;2023-05-18T13:38:01;5.93;;;3.38;;
10335;SDS011;5213;53.548;9.930;2023-05-18T13:40:27;6.50;;;2.70;;
10335;SDS011;5213;53.548;9.930;2023-05-18T13:42:53;5.60;;;3.33;;
10335;SDS011;5213;53.548;9.930;2023-05-18T13:45:19;6.70;;;2.50;;
10335;SDS011;5213;53.548;9.930;2023-05-18T13:47:46;7.07;;;2.72;;
10335;SDS011;5213;53.548;9.930;2023-05-18T13:50:16;5.82;;;2.70;;
10335;SDS011;5213;53.548;9.930;2023-05-18T13:52:42;5.50;;;2.47;;
10335;SDS011;5213;53.548;9.930;2023-05-18T13:55:08;5.72;;;2.88;;
10335;SDS011;5213;53.548;9.930;2023-05-18T13:57:34;6.15;;;2.72;;
10335;SDS011;5213;53.548;9.930;2023-05-18T14:00:00;4.47;;;2.67;;
10335;SDS011;5213;53.548;9.930;2023-05-18T14:02:29;4.07;;;2.55;;
10335;SDS011;5213;53.548;9.930;2023-05-18T14:04:55;4.97;;;2.40;;
10335;SDS011;5213;53.548;9.930;2023-05-18T14:07:22;7.53;;;2.95;;
10335;SDS011;5213;53.548;9.930;2023-05-18T14:09:48;3.60;;;2.50;;
10335;SDS011;5213;53.548;9.930;2023-05-18T14:12:15;6.70;;;3.00;;
10335;SDS011;5213;53.548;9.930;2023-05-18T14:14:41;4.82;;;2.67;;
10335;SDS011;5213;53.548;9.930;2023-05-18T14:17:07;4.45;;;2.83;;
10335;SDS011;5213;53.548;9.930;2023-05-18T14:19:33;4.43;;;2.67;;
10335;SDS011;5213;53.548;9.930;2023-05-18T14:22:00;6.68;;;2.47;;
10335;SDS011;5213;53.548;9.930;2023-05-18T14:24:26;5.88;;;2.80;;
10335;SDS011;5213;53.548;9.930;2023-05-18T14:26:52;6.15;;;3.13;;
10335;SDS011;5213;53.548;9.930;2023-05-18T14:29:18;4.78;;;2.53;;
10335;SDS011;5213;53.548;9.930;2023-05-18T14:31:45;6.70;;;2.55;;
10335;SDS011;5213;53.548;9.930;2023-05-18T14:34:11;7.18;;;2.83;;
10335;SDS011;5213;53.548;9.930;2023-05-18T14:36:37;4.28;;;2.72;;
10335;SDS011;5213;53.548;9.930;2023-05-18T14:39:03;4.50;;;2.58;;
10335;SDS011;5213;53.548;9.930;2023-05-18T14:41:30;7.63;;;2.80;;
10335;SDS011;5213;53.548;9.930;2023-05-18T14:43:56;6.85;;;3.03;;
10335;SDS011;5213;53.548;9.930;2023-05-18T14:46:22;3.78;;;2.40;;
10335;SDS011;5213;53.548;9.930;2023-05-18T14:48:48;3.50;;;2.45;;
10335;SDS011;5213;53.548;9.930;2023-05-18T14:51:14;3.92;;;2.50;;
10335;SDS011;5213;53.548;9.930;2023-05-18T14:53:42;4.50;;;2.58;;
10335;SDS011;5213;53.548;9.930;2023-05-18T14:56:08;3.60;;;2.33;;
10335;SDS011;5213;53.548;9.930;2023-05-18T14:58:34;5.32;;;2.53;;
10335;SDS011;5213;53.548;9.930;2023-05-18T15:01:00;9.73;;;2.80;;
10335;SDS011;5213;53.548;9.930;2023-05-18T15:03:27;7.95;;;3.10;;
10335;SDS011;5213;53.548;9.930;2023-05-18T15:05:53;4.95;;;3.30;;
10335;SDS011;5213;53.548;9.930;2023-05-18T15:08:19;4.93;;;2.88;;
10335;SDS011;5213;53.548;9.930;2023-05-18T15:10:45;4.20;;;2.30;;
10335;SDS011;5213;53.548;9.930;2023-05-18T15:13:11;7.25;;;3.05;;
10335;SDS011;5213;53.548;9.930;2023-05-18T15:15:38;4.07;;;2.20;;
10335;SDS011;5213;53.548;9.930;2023-05-18T15:18:04;5.32;;;2.60;;
10335;SDS011;5213;53.548;9.930;2023-05-18T15:20:30;5.75;;;2.75;;
10335;SDS011;5213;53.548;9.930;2023-05-18T15:22:56;5.25;;;2.65;;
10335;SDS011;5213;53.548;9.930;2023-05-18T15:25:22;3.88;;;2.40;;
10335;SDS011;5213;53.548;9.930;2023-05-18T15:27:48;5.80;;;3.05;;
10335;SDS011;5213;53.548;9.930;2023-05-18T15:30:16;5.47;;;2.67;;
10335;SDS011;5213;53.548;9.930;2023-05-18T15:32:43;5.07;;;2.70;;
10335;SDS011;5213;53.548;9.930;2023-05-18T15:35:09;6.38;;;2.58;;